createdAt,value
2023-03-27T00:01:13.463Z,23.55
2023-03-27T00:05:13.484Z,23.54
2023-03-27T00:09:13.577Z,23.54
2023-03-27T00:13:13.667Z,23.54
2023-03-27T00:17:13.788Z,23.53
2023-03-27T00:21:13.862Z,23.51
2023-03-27T00:25:13.947Z,23.52
2023-03-27T00:29:14.062Z,23.51
2023-03-27T00:33:14.134Z,23.50
2023-03-27T00:37:14.274Z,23.50
2023-03-27T00:41:14.342Z,23.50
2023-03-27T00:45:14.436Z,23.50
2023-03-27T00:49:14.539Z,23.48
2023-03-27T00:53:14.625Z,23.47
2023-03-27T00:57:14.838Z,23.47
2023-03-27T01:01:14.927Z,23.48
2023-03-27T01:05:14.990Z,23.48
2023-03-27T01:09:20.202Z,23.48
2023-03-27T01:13:16.138Z,23.46
2023-03-27T01:17:15.062Z,23.46
2023-03-27T01:21:15.007Z,23.46
2023-03-27T01:25:15.161Z,23.45
2023-03-27T01:29:15.226Z,23.45
2023-03-27T01:33:15.322Z,23.45
2023-03-27T01:37:15.419Z,23.44
2023-03-27T01:41:15.525Z,23.44
2023-03-27T01:45:15.639Z,23.42
2023-03-27T01:49:15.700Z,23.42
2023-03-27T01:53:15.775Z,23.42
2023-03-27T01:57:15.989Z,23.41
2023-03-27T02:01:16.040Z,23.41
2023-03-27T02:05:16.212Z,23.42
2023-03-27T02:09:16.309Z,23.42
2023-03-27T02:13:16.464Z,23.40
2023-03-27T02:17:16.594Z,23.40
2023-03-27T02:21:16.745Z,23.40
2023-03-27T02:25:16.939Z,23.39
2023-03-27T02:29:17.035Z,23.38
2023-03-27T02:33:17.265Z,23.37
2023-03-27T02:37:17.364Z,23.37
2023-03-27T02:41:17.472Z,23.37
2023-03-27T02:45:17.655Z,23.37
2023-03-27T02:49:17.749Z,23.35
2023-03-27T02:53:17.917Z,23.35
2023-03-27T02:57:18.021Z,23.34
2023-03-27T03:01:18.140Z,23.35
2023-03-27T03:05:18.234Z,23.34
2023-03-27T03:09:18.400Z,23.34
2023-03-27T03:13:18.502Z,23.34
2023-03-27T03:17:18.651Z,23.34
2023-03-27T03:21:18.748Z,23.32
2023-03-27T03:25:18.877Z,23.32
2023-03-27T03:29:19.088Z,23.32
2023-03-27T03:33:19.180Z,23.32
2023-03-27T03:37:19.343Z,23.31
2023-03-27T03:41:19.473Z,23.31
2023-03-27T03:45:19.622Z,23.30
2023-03-27T03:49:19.813Z,23.30
2023-03-27T03:53:20.009Z,23.30
2023-03-27T03:57:20.084Z,23.30
2023-03-27T04:01:20.217Z,23.30
2023-03-27T04:05:20.433Z,23.27
2023-03-27T04:09:20.630Z,23.25
2023-03-27T04:13:20.639Z,23.22
2023-03-27T04:17:20.598Z,23.22
2023-03-27T04:21:20.566Z,23.18
2023-03-27T04:25:20.476Z,23.17
2023-03-27T04:29:20.471Z,23.18
2023-03-27T04:33:20.464Z,23.19
2023-03-27T04:37:23.376Z,23.18
2023-03-27T04:41:20.363Z,23.20
2023-03-27T04:45:20.312Z,23.18
2023-03-27T04:49:20.323Z,23.20
2023-03-27T04:53:20.339Z,23.20
2023-03-27T04:57:20.301Z,23.19
2023-03-27T05:01:20.212Z,23.17
2023-03-27T05:05:20.196Z,23.17
2023-03-27T05:09:20.303Z,23.17
2023-03-27T05:13:20.491Z,23.16
2023-03-27T05:17:20.742Z,23.16
2023-03-27T05:21:20.967Z,23.15
2023-03-27T05:25:20.886Z,23.15
2023-03-27T05:29:20.882Z,23.14
2023-03-27T05:33:20.851Z,23.14
2023-03-27T05:37:20.797Z,23.15
2023-03-27T05:41:20.821Z,23.21
2023-03-27T05:45:20.720Z,23.28
2023-03-27T05:49:20.670Z,23.34
2023-03-27T05:53:20.634Z,23.39
2023-03-27T05:57:21.674Z,23.41
2023-03-27T06:01:20.615Z,23.45
2023-03-27T06:05:20.550Z,23.54
2023-03-27T06:09:20.613Z,23.61
2023-03-27T06:13:20.673Z,23.67
2023-03-27T06:17:20.782Z,23.73
2023-03-27T06:21:20.915Z,23.79
2023-03-27T06:25:20.852Z,23.81
2023-03-27T06:29:21.179Z,23.88
2023-03-27T06:33:20.943Z,23.90
2023-03-27T06:37:20.977Z,23.94
2023-03-27T06:41:21.002Z,24.01
2023-03-27T06:45:20.997Z,24.06
2023-03-27T06:49:21.225Z,24.09
2023-03-27T06:53:27.396Z,24.13
2023-03-27T06:57:22.150Z,24.13
2023-03-27T07:01:21.084Z,24.14
2023-03-27T07:05:21.207Z,24.17
2023-03-27T07:09:21.117Z,24.19
2023-03-27T07:13:21.112Z,24.23
2023-03-27T07:17:21.033Z,24.33
2023-03-27T07:21:21.025Z,24.36
2023-03-27T07:25:20.974Z,24.36
2023-03-27T07:29:20.981Z,24.31
2023-03-27T07:33:20.945Z,24.33
2023-03-27T07:37:21.146Z,24.23
2023-03-27T07:41:20.842Z,24.16
2023-03-27T07:45:21.177Z,24.20
2023-03-27T07:49:20.730Z,24.25
2023-03-27T07:53:33.884Z,24.32
2023-03-27T07:57:21.807Z,24.36
2023-03-27T08:01:20.656Z,24.40
2023-03-27T08:05:20.607Z,24.45
2023-03-27T08:09:20.646Z,24.49
2023-03-27T08:13:20.558Z,24.54
2023-03-27T08:17:22.048Z,24.46
2023-03-27T08:21:20.463Z,23.78
2023-03-27T08:25:20.473Z,23.71
2023-03-27T08:29:20.588Z,22.88
2023-03-27T08:33:20.784Z,22.45
2023-03-27T08:37:20.854Z,22.05
2023-03-27T08:41:21.048Z,22.24
2023-03-27T08:45:21.209Z,22.55
2023-03-27T08:49:21.772Z,22.80
2023-03-27T08:53:21.273Z,23.02
2023-03-27T08:57:21.675Z,23.23
2023-03-27T09:01:21.767Z,23.37
2023-03-27T09:05:21.839Z,23.48
2023-03-27T09:09:21.977Z,23.61
2023-03-27T09:13:21.986Z,23.72
2023-03-27T09:17:22.000Z,23.80
2023-03-27T09:21:22.179Z,23.87
2023-03-27T09:25:22.203Z,23.93
2023-03-27T09:29:22.085Z,23.98
2023-03-27T09:33:23.310Z,24.01
2023-03-27T09:37:22.186Z,24.12
2023-03-27T09:41:22.173Z,24.22
2023-03-27T09:45:22.174Z,24.37
2023-03-27T09:49:22.141Z,24.49
2023-03-27T09:53:22.052Z,24.59
2023-03-27T09:57:22.032Z,24.72
2023-03-27T10:01:22.019Z,24.83
2023-03-27T10:05:22.285Z,24.87
2023-03-27T10:09:21.962Z,24.89
2023-03-27T10:13:21.903Z,24.92
2023-03-27T10:17:21.854Z,24.92
2023-03-27T10:21:21.869Z,24.95
2023-03-27T10:25:21.767Z,24.96
2023-03-27T10:29:22.261Z,24.69
2023-03-27T10:33:21.779Z,24.27
2023-03-27T10:37:21.707Z,24.34
2023-03-27T10:41:29.226Z,24.48
2023-03-27T10:45:22.664Z,24.64
2023-03-27T10:49:21.562Z,24.78
2023-03-27T10:53:21.674Z,24.70
2023-03-27T10:57:21.482Z,24.71
2023-03-27T11:01:21.549Z,24.76
2023-03-27T11:05:21.534Z,24.79
2023-03-27T11:09:21.558Z,24.82
2023-03-27T11:13:21.507Z,24.79
2023-03-27T11:17:21.563Z,24.84
2023-03-27T11:21:21.574Z,25.05
2023-03-27T11:25:21.586Z,25.17
2023-03-27T11:29:21.725Z,25.19
2023-03-27T11:33:21.848Z,25.17
2023-03-27T11:37:21.811Z,25.15
2023-03-27T11:41:21.835Z,25.09
2023-03-27T11:45:21.844Z,25.02
2023-03-27T11:49:21.942Z,25.00
2023-03-27T11:53:22.009Z,24.94
2023-03-27T11:57:22.191Z,24.92
2023-03-27T12:01:22.277Z,24.87
2023-03-27T12:05:22.409Z,24.76
2023-03-27T12:09:22.641Z,24.52
2023-03-27T12:13:28.778Z,24.31
2023-03-27T12:17:23.730Z,24.47
2023-03-27T12:21:22.665Z,24.60
2023-03-27T12:25:22.726Z,24.71
2023-03-27T12:29:24.468Z,24.82
2023-03-27T12:33:23.284Z,24.94
2023-03-27T12:37:22.864Z,25.00
2023-03-27T12:41:22.857Z,25.06
2023-03-27T12:45:22.993Z,25.10
2023-03-27T12:49:44.478Z,25.13
2023-03-27T12:53:24.376Z,25.16
2023-03-27T12:57:23.345Z,24.85
2023-03-27T13:01:23.058Z,24.28
2023-03-27T13:05:27.612Z,24.24
2023-03-27T13:09:24.016Z,24.19
2023-03-27T13:13:22.952Z,24.24
2023-03-27T13:17:22.995Z,24.35
2023-03-27T13:21:23.065Z,24.38
2023-03-27T13:25:23.243Z,24.25
2023-03-27T13:29:23.621Z,24.24
2023-03-27T13:33:23.481Z,24.38
2023-03-27T13:37:23.405Z,24.52
2023-03-27T13:41:25.627Z,24.55
2023-03-27T13:45:23.366Z,24.56
2023-03-27T13:49:23.496Z,24.56
2023-03-27T13:53:23.966Z,24.57
2023-03-27T13:57:23.882Z,24.60
2023-03-27T14:01:24.186Z,24.62
2023-03-27T14:05:24.289Z,24.62
2023-03-27T14:09:24.459Z,24.60
2023-03-27T14:13:24.672Z,24.55
2023-03-27T14:17:24.673Z,24.50
2023-03-27T14:21:37.812Z,24.49
2023-03-27T14:25:25.587Z,24.47
2023-03-27T14:29:24.564Z,24.48
2023-03-27T14:33:24.615Z,24.53
2023-03-27T14:37:24.730Z,24.55
2023-03-27T14:41:24.949Z,24.57
2023-03-27T14:45:25.001Z,24.61
2023-03-27T14:49:25.130Z,24.61
2023-03-27T14:53:25.300Z,24.58
2023-03-27T14:57:25.453Z,24.57
2023-03-27T15:01:25.562Z,24.55
2023-03-27T15:05:25.778Z,24.54
2023-03-27T15:09:25.968Z,24.51
2023-03-27T15:13:26.227Z,24.49
2023-03-27T15:17:26.362Z,24.48
2023-03-27T15:21:26.483Z,24.47
2023-03-27T15:25:26.719Z,24.47
2023-03-27T15:29:26.905Z,24.47
2023-03-27T15:33:26.837Z,24.45
2023-03-27T15:37:26.803Z,24.46
2023-03-27T15:41:26.786Z,24.47
2023-03-27T15:45:26.744Z,24.48
2023-03-27T15:49:26.738Z,24.47
2023-03-27T15:53:26.684Z,24.46
2023-03-27T15:57:26.670Z,24.44
2023-03-27T16:01:26.681Z,24.43
2023-03-27T16:05:26.584Z,24.40
2023-03-27T16:09:26.486Z,24.37
2023-03-27T16:13:26.611Z,24.35
2023-03-27T16:17:26.603Z,24.32
2023-03-27T16:21:26.563Z,24.30
2023-03-27T16:25:26.577Z,24.28
2023-03-27T16:29:26.456Z,24.25
2023-03-27T16:33:26.427Z,24.22
2023-03-27T16:37:26.364Z,24.20
2023-03-27T16:41:26.388Z,24.18
2023-03-27T16:45:26.339Z,24.17
2023-03-27T16:49:26.350Z,24.15
2023-03-27T16:53:26.208Z,24.13
2023-03-27T16:57:26.200Z,24.11
2023-03-27T17:01:26.273Z,24.11
2023-03-27T17:05:26.150Z,24.10
2023-03-27T17:09:26.107Z,24.08
2023-03-27T17:13:26.041Z,24.06
2023-03-27T17:17:26.023Z,24.04
2023-03-27T17:21:25.971Z,24.02
2023-03-27T17:25:25.960Z,24.01
2023-03-27T17:29:25.906Z,23.98
2023-03-27T17:33:25.859Z,23.96
2023-03-27T17:37:25.866Z,23.94
2023-03-27T17:41:25.794Z,23.93
2023-03-27T17:45:25.791Z,23.91
2023-03-27T17:49:25.731Z,23.90
2023-03-27T17:53:25.704Z,23.88
2023-03-27T17:57:25.678Z,23.86
2023-03-27T18:01:25.860Z,23.85
2023-03-27T18:05:25.864Z,23.84
2023-03-27T18:09:25.972Z,23.83
2023-03-27T18:13:26.055Z,23.81
2023-03-27T18:17:26.203Z,23.80
2023-03-27T18:21:26.244Z,23.79
2023-03-27T18:25:26.387Z,23.78
2023-03-27T18:29:26.508Z,23.77
2023-03-27T18:33:26.651Z,23.75
2023-03-27T18:37:26.676Z,23.76
2023-03-27T18:41:26.797Z,23.74
2023-03-27T18:45:26.862Z,23.73
2023-03-27T18:49:26.969Z,23.70
2023-03-27T18:53:27.142Z,23.67
2023-03-27T18:57:27.338Z,23.66
2023-03-27T19:01:27.514Z,23.63
2023-03-27T19:05:27.706Z,23.57
2023-03-27T19:09:34.467Z,23.55
2023-03-27T19:13:28.643Z,23.52
2023-03-27T19:17:27.655Z,23.50
2023-03-27T19:21:27.850Z,23.50
2023-03-27T19:25:28.052Z,23.50
2023-03-27T19:29:28.226Z,23.52
2023-03-27T19:33:28.374Z,23.54
2023-03-27T19:37:28.514Z,23.55
2023-03-27T19:41:28.639Z,23.54
2023-03-27T19:45:28.774Z,23.55
2023-03-27T19:49:28.848Z,23.55
2023-03-27T19:53:28.953Z,23.55
2023-03-27T19:57:29.057Z,23.54
2023-03-27T20:01:29.231Z,23.55
2023-03-27T20:05:29.382Z,23.54
2023-03-27T20:09:29.461Z,23.55
2023-03-27T20:13:29.533Z,23.55
2023-03-27T20:17:29.560Z,23.54
2023-03-27T20:21:29.625Z,23.55
2023-03-27T20:25:29.775Z,23.54
2023-03-27T20:29:29.837Z,23.54
2023-03-27T20:33:29.912Z,23.55
2023-03-27T20:37:30.055Z,23.54
2023-03-27T20:41:30.172Z,23.54
2023-03-27T20:45:30.354Z,23.54
2023-03-27T20:49:40.709Z,23.54
2023-03-27T20:53:33.877Z,23.53
2023-03-27T20:57:30.292Z,23.54
2023-03-27T21:01:30.288Z,23.55
2023-03-27T21:05:30.289Z,23.54
2023-03-27T21:09:30.154Z,23.54
2023-03-27T21:13:30.125Z,23.53
2023-03-27T21:17:30.267Z,23.53
2023-03-27T21:21:30.066Z,23.52
2023-03-27T21:25:30.055Z,23.53
2023-03-27T21:29:29.981Z,23.51
2023-03-27T21:33:29.942Z,23.51
2023-03-27T21:37:29.942Z,23.50
2023-03-27T21:41:29.997Z,23.50
2023-03-27T21:45:30.130Z,23.49
2023-03-27T21:49:30.231Z,23.49
2023-03-27T21:53:30.380Z,23.48
2023-03-27T21:57:30.430Z,23.48
2023-03-27T22:01:30.681Z,23.46
2023-03-27T22:05:30.665Z,23.46
2023-03-27T22:09:30.803Z,23.45
2023-03-27T22:13:31.082Z,23.45
2023-03-27T22:17:31.220Z,23.44
2023-03-27T22:21:31.262Z,23.43
2023-03-27T22:25:31.397Z,23.42
2023-03-27T22:29:31.531Z,23.42
2023-03-27T22:33:31.580Z,23.41
2023-03-27T22:37:31.724Z,23.40
2023-03-27T22:41:31.863Z,23.40
2023-03-27T22:45:32.046Z,23.39
2023-03-27T22:49:32.112Z,23.38
2023-03-27T22:53:32.302Z,23.37
2023-03-27T22:57:32.457Z,23.37
2023-03-27T23:01:32.595Z,23.36
2023-03-27T23:05:32.701Z,23.34
2023-03-27T23:09:32.852Z,23.34
2023-03-27T23:13:32.991Z,23.33
2023-03-27T23:17:33.236Z,23.32
2023-03-27T23:21:33.422Z,23.31
2023-03-27T23:25:33.547Z,23.30
2023-03-27T23:29:33.786Z,23.29
2023-03-27T23:33:33.940Z,23.29
2023-03-27T23:37:34.145Z,23.28
2023-03-27T23:41:34.327Z,23.27
2023-03-27T23:45:34.586Z,23.26
2023-03-27T23:49:40.074Z,23.26
2023-03-27T23:53:34.806Z,23.26
2023-03-27T23:57:35.042Z,23.25
